Time;durP1;ratioP1;P1;durP2;ratioP2;P2;SDS_P1;SDS_P2;PMS_P1;PMS_P2;Temp;Humidity;BMP_temperature;BMP_pressure;BME280_temperature;BME280_humidity;BME280_pressure;Samples;Min_cycle;Max_cycle;Signal;HPM_P1;HPM_P2
2023/08/01 00:01:29;;;;;;;1999.90;999.90;;;20.50;99.90;;;;;;5051872;28;20021;-69
2023/08/01 00:03:54;;;;;;;1999.90;999.90;;;20.50;99.90;;;;;;5033521;28;20495;-73
2023/08/01 00:06:21;;;;;;;1999.90;999.90;;;20.60;99.90;;;;;;5034135;28;20033;-70
2023/08/01 00:08:47;;;;;;;1999.90;999.90;;;20.60;99.90;;;;;;5034398;28;20025;-69
2023/08/01 00:11:14;;;;;;;1999.90;999.90;;;20.60;99.90;;;;;;5016301;28;20039;-70
2023/08/01 00:13:40;;;;;;;1999.90;999.90;;;20.60;99.90;;;;;;5034166;28;20021;-70
2023/08/01 00:16:06;;;;;;;1999.90;999.90;;;20.60;99.90;;;;;;5034068;28;20056;-71
2023/08/01 00:18:32;;;;;;;1999.90;999.90;;;20.70;99.90;;;;;;5034060;28;20018;-74
2023/08/01 00:20:58;;;;;;;1999.90;999.90;;;20.70;99.90;;;;;;5033736;28;20079;-69
2023/08/01 00:23:24;;;;;;;1999.90;999.90;;;20.70;99.90;;;;;;5033827;28;20019;-70
2023/08/01 00:25:51;;;;;;;1999.90;999.90;;;20.70;99.90;;;;;;5033766;28;20075;-69
2023/08/01 00:28:22;;;;;;;1999.90;999.90;;;20.70;99.90;;;;;;5033901;28;20567;-70
2023/08/01 00:30:48;;;;;;;1999.90;999.90;;;20.80;99.90;;;;;;5033864;28;20033;-70
2023/08/01 00:33:14;;;;;;;1999.90;999.90;;;20.70;99.90;;;;;;5033821;28;20121;-70
2023/08/01 00:35:40;;;;;;;1999.90;999.90;;;20.80;99.90;;;;;;5033641;28;20030;-72
2023/08/01 00:38:06;;;;;;;1999.90;999.90;;;20.80;99.90;;;;;;5033661;28;20049;-70
2023/08/01 00:40:33;;;;;;;1999.90;999.90;;;20.80;99.90;;;;;;5015878;28;20025;-70
2023/08/01 00:42:58;;;;;;;1999.90;999.90;;;20.80;99.90;;;;;;5033584;28;20049;-70
2023/08/01 00:45:28;;;;;;;1999.90;999.90;;;20.80;99.90;;;;;;5033538;28;20025;-71
2023/08/01 00:47:55;;;;;;;1999.90;999.90;;;20.80;99.90;;;;;;5015618;28;20025;-69
2023/08/01 00:50:22;;;;;;;1999.90;999.90;;;20.90;99.90;;;;;;5033382;28;20067;-70
2023/08/01 00:52:48;;;;;;;1999.90;999.90;;;20.90;99.90;;;;;;5033732;28;20021;-71
2023/08/01 00:55:15;;;;;;;1999.90;999.90;;;20.90;99.90;;;;;;5033376;28;20104;-71
2023/08/01 00:57:42;;;;;;;1999.90;999.90;;;20.90;99.90;;;;;;5031624;28;20032;-71
2023/08/01 01:00:08;;;;;;;1999.90;999.90;;;20.90;99.90;;;;;;5033209;28;20032;-70
2023/08/01 01:02:34;;;;;;;1999.90;999.90;;;20.90;99.90;;;;;;5033076;28;20028;-69
2023/08/01 01:05:01;;;;;;;1999.90;999.90;;;20.90;99.90;;;;;;5032335;28;20025;-70
2023/08/01 01:07:28;;;;;;;1999.90;999.90;;;20.90;99.90;;;;;;5032983;28;20025;-70
2023/08/01 01:09:54;;;;;;;1999.90;999.90;;;20.90;99.90;;;;;;5033063;28;20025;-74
2023/08/01 01:12:19;;;;;;;1999.90;999.90;;;20.90;99.90;;;;;;5033104;28;20100;-70
2023/08/01 01:14:45;;;;;;;1999.90;999.90;;;20.90;99.90;;;;;;5033029;28;20040;-71
2023/08/01 01:17:12;;;;;;;1999.90;999.90;;;20.90;99.90;;;;;;5015330;28;20499;-70
2023/08/01 01:19:38;;;;;;;1999.90;999.90;;;20.90;99.90;;;;;;5032983;28;20037;-71
2023/08/01 01:22:09;;;;;;;1999.90;999.90;;;20.90;99.90;;;;;;5032756;28;20033;-75
2023/08/01 01:24:35;;;;;;;1999.90;999.90;;;20.90;99.90;;;;;;5032922;28;20052;-71
2023/08/01 01:27:03;;;;;;;1999.90;999.90;;;20.90;99.90;;;;;;5032920;28;20507;-70
2023/08/01 01:29:29;;;;;;;1999.90;999.90;;;20.90;99.90;;;;;;5033129;28;20026;-71
2023/08/01 01:31:57;;;;;;;1999.90;999.90;;;20.80;99.90;;;;;;5032796;28;20021;-70
2023/08/01 01:34:22;;;;;;;1999.90;999.90;;;20.80;99.90;;;;;;5032703;28;20539;-74
2023/08/01 01:36:48;;;;;;;1999.90;999.90;;;20.70;99.90;;;;;;5032658;28;20026;-75
2023/08/01 01:39:14;;;;;;;1999.90;999.90;;;20.70;99.90;;;;;;5032584;28;20029;-70
2023/08/01 01:41:39;;;;;;;1999.90;999.90;;;20.80;99.90;;;;;;5032725;28;20025;-70
2023/08/01 01:44:05;;;;;;;1999.90;999.90;;;20.70;99.90;;;;;;5011520;28;20229;-71
2023/08/01 01:46:32;;;;;;;1999.90;999.90;;;20.70;99.90;;;;;;5013155;28;20046;-75
2023/08/01 01:48:58;;;;;;;1999.90;999.90;;;20.70;99.90;;;;;;5011552;28;20030;-75
2023/08/01 01:51:26;;;;;;;1999.90;999.90;;;20.70;99.90;;;;;;5012959;28;20036;-70
2023/08/01 01:53:51;;;;;;;1999.90;999.90;;;20.70;99.90;;;;;;5012775;28;20080;-70
2023/08/01 01:56:17;;;;;;;1999.90;999.90;;;20.80;99.90;;;;;;5013025;28;20037;-70
2023/08/01 01:58:43;;;;;;;1999.90;999.90;;;20.80;99.90;;;;;;5012747;28;20109;-71
2023/08/01 02:01:08;;;;;;;1999.90;999.90;;;20.80;99.90;;;;;;5013061;28;20026;-75
2023/08/01 02:03:35;;;;;;;1999.90;999.90;;;20.80;99.90;;;;;;5011062;28;20026;-70
2023/08/01 02:06:03;;;;;;;1999.90;999.90;;;20.80;99.90;;;;;;5012575;28;20072;-69
2023/08/01 02:08:28;;;;;;;1999.90;999.90;;;20.90;99.90;;;;;;5011804;28;20499;-70
2023/08/01 02:10:55;;;;;;;1999.90;999.90;;;20.90;99.90;;;;;;5016534;28;20049;-70
2023/08/01 02:13:20;;;;;;;1999.90;999.90;;;20.90;99.90;;;;;;5015553;28;20405;-71
2023/08/01 02:15:46;;;;;;;1999.90;999.90;;;20.90;99.90;;;;;;5016702;28;20030;-76
2023/08/01 02:18:12;;;;;;;1999.90;999.90;;;20.90;99.90;;;;;;5016429;28;20428;-70
2023/08/01 02:20:37;;;;;;;1999.90;999.90;;;20.90;99.90;;;;;;5016386;28;20030;-70
2023/08/01 02:23:03;;;;;;;1999.90;999.90;;;20.90;99.90;;;;;;5016337;28;20072;-70
2023/08/01 02:25:29;;;;;;;1999.90;999.90;;;20.90;99.90;;;;;;5016682;28;20491;-69
2023/08/01 02:27:54;;;;;;;1999.90;999.90;;;20.90;99.90;;;;;;5016636;28;20026;-70
2023/08/01 02:30:20;;;;;;;1999.90;999.90;;;20.90;99.90;;;;;;5016376;28;20401;-70
2023/08/01 02:32:45;;;;;;;1999.90;999.90;;;20.80;99.90;;;;;;5016376;28;20105;-71
2023/08/01 02:35:11;;;;;;;1999.90;999.90;;;20.60;99.90;;;;;;5015945;28;20030;-70
2023/08/01 02:37:37;;;;;;;1999.90;999.90;;;20.50;99.90;;;;;;5016224;28;20090;-72
2023/08/01 02:40:07;;;;;;;1999.90;999.90;;;20.40;99.90;;;;;;5014842;28;20088;-70
2023/08/01 02:42:33;;;;;;;1999.90;999.90;;;20.30;99.90;;;;;;5018460;28;20033;-71
2023/08/01 02:44:59;;;;;;;1999.90;999.90;;;20.20;99.90;;;;;;5035869;28;20026;-70
2023/08/01 02:47:24;;;;;;;1999.90;999.90;;;20.20;99.90;;;;;;5035607;28;20030;-71
2023/08/01 02:49:50;;;;;;;1999.90;999.90;;;20.10;99.90;;;;;;5035609;28;20048;-70
2023/08/01 02:52:15;;;;;;;1999.90;999.90;;;20.00;99.90;;;;;;5035737;28;20562;-70
2023/08/01 02:54:41;;;;;;;1999.90;999.90;;;20.00;99.90;;;;;;5035790;28;20022;-76
2023/08/01 02:57:07;;;;;;;1999.90;999.90;;;20.00;99.90;;;;;;5017738;28;20057;-70
2023/08/01 02:59:33;;;;;;;1999.90;999.90;;;20.00;99.90;;;;;;5017669;28;20412;-71
2023/08/01 03:01:59;;;;;;;1999.90;999.90;;;20.10;99.90;;;;;;5035494;28;20088;-70
2023/08/01 03:04:24;;;;;;;1999.90;999.90;;;20.10;99.90;;;;;;5034900;28;20427;-71
2023/08/01 03:06:50;;;;;;;1999.90;999.90;;;20.10;99.90;;;;;;5042548;28;20088;-72
2023/08/01 03:09:15;;;;;;;1999.90;999.90;;;20.10;99.90;;;;;;5016694;28;20041;-71
2023/08/01 03:11:41;;;;;;;1999.90;999.90;;;20.10;99.90;;;;;;5017324;28;20506;-71
2023/08/01 03:14:07;;;;;;;1999.90;999.90;;;20.10;99.90;;;;;;5035202;28;20399;-71
2023/08/01 03:16:33;;;;;;;1999.90;999.90;;;20.10;99.90;;;;;;5035268;28;20033;-71
2023/08/01 03:19:04;;;;;;;1999.90;999.90;;;20.00;99.90;;;;;;5034826;28;20146;-71
2023/08/01 03:21:32;;;;;;;1999.90;999.90;;;20.00;99.90;;;;;;5015870;28;20028;-71
2023/08/01 03:23:58;;;;;;;1999.90;999.90;;;20.00;99.90;;;;;;5035000;28;20022;-71
2023/08/01 03:26:24;;;;;;;1999.90;999.90;;;19.90;99.90;;;;;;5035445;28;20018;-71
2023/08/01 03:28:49;;;;;;;1999.90;999.90;;;19.90;99.90;;;;;;5035171;28;20388;-71
2023/08/01 03:31:15;;;;;;;1999.90;999.90;;;19.90;99.90;;;;;;5035111;28;20029;-75
2023/08/01 03:33:41;;;;;;;1999.90;999.90;;;19.90;99.90;;;;;;5035120;28;20480;-74
2023/08/01 03:36:06;;;;;;;1999.90;999.90;;;19.90;99.90;;;;;;5034582;28;20451;-71
2023/08/01 03:38:32;;;;;;;1999.90;999.90;;;19.80;99.90;;;;;;5034990;28;20048;-70
2023/08/01 03:40:58;;;;;;;1999.90;999.90;;;19.80;99.90;;;;;;5035130;28;20481;-70
2023/08/01 03:43:23;;;;;;;1999.90;999.90;;;19.70;99.90;;;;;;5034669;28;20099;-71
2023/08/01 03:45:51;;;;;;;1999.90;999.90;;;19.70;99.90;;;;;;5034842;28;20079;-71
2023/08/01 03:48:17;;;;;;;1999.90;999.90;;;19.70;99.90;;;;;;5016804;28;20026;-71
2023/08/01 03:50:43;;;;;;;1999.90;999.90;;;19.70;99.90;;;;;;5034569;28;20029;-72
2023/08/01 03:53:08;;;;;;;1999.90;999.90;;;19.60;99.90;;;;;;5034794;28;20079;-71
2023/08/01 03:55:34;;;;;;;1999.90;999.90;;;19.60;99.90;;;;;;5034669;28;20026;-70
2023/08/01 03:57:59;;;;;;;1999.90;999.90;;;19.50;99.90;;;;;;5034483;28;20029;-71
2023/08/01 04:00:25;;;;;;;1999.90;999.90;;;19.60;99.90;;;;;;5034298;28;20585;-71
2023/08/01 04:02:51;;;;;;;1999.90;999.90;;;19.50;99.90;;;;;;5034096;28;20018;-71
2023/08/01 04:05:17;;;;;;;1999.90;999.90;;;19.50;99.90;;;;;;5033343;28;20040;-71
2023/08/01 04:07:43;;;;;;;1999.90;999.90;;;19.40;99.90;;;;;;5015713;28;20075;-71
2023/08/01 04:10:09;;;;;;;1999.90;999.90;;;19.40;99.90;;;;;;5046406;28;20506;-76
2023/08/01 04:12:35;;;;;;;1999.90;999.90;;;19.50;99.90;;;;;;5016618;28;20017;-71
2023/08/01 04:15:00;;;;;;;1999.90;999.90;;;19.40;99.90;;;;;;5034046;28;20393;-71
2023/08/01 04:17:26;;;;;;;1999.90;999.90;;;19.40;99.90;;;;;;5016229;28;20121;-72
2023/08/01 04:19:52;;;;;;;1999.90;999.90;;;19.40;99.90;;;;;;5033941;28;20025;-72
2023/08/01 04:22:18;;;;;;;1999.90;999.90;;;19.40;99.90;;;;;;5016191;28;20452;-75
2023/08/01 04:24:44;;;;;;;1999.90;999.90;;;19.40;99.90;;;;;;5016145;28;20034;-76
2023/08/01 04:27:09;;;;;;;1999.90;999.90;;;19.40;99.90;;;;;;5033870;28;20022;-71
2023/08/01 04:29:35;;;;;;;1999.90;999.90;;;19.40;99.90;;;;;;5034003;28;20519;-70
2023/08/01 04:32:01;;;;;;;1999.90;999.90;;;19.40;99.90;;;;;;5033787;28;20026;-71
2023/08/01 04:34:26;;;;;;;1999.90;999.90;;;19.40;99.90;;;;;;5033484;28;20033;-71
2023/08/01 04:36:52;;;;;;;1999.90;999.90;;;19.40;99.90;;;;;;5033920;28;20033;-75
2023/08/01 04:39:17;;;;;;;1999.90;999.90;;;19.40;99.90;;;;;;5033892;28;20041;-71
2023/08/01 04:41:43;;;;;;;1999.90;999.90;;;19.30;99.90;;;;;;5033973;28;20369;-71
2023/08/01 04:44:09;;;;;;;1999.90;999.90;;;19.30;99.90;;;;;;5015660;28;20056;-71
2023/08/01 04:46:34;;;;;;;1999.90;999.90;;;19.20;99.90;;;;;;5033568;28;20029;-71
2023/08/01 04:49:00;;;;;;;1999.90;999.90;;;19.20;99.90;;;;;;5033557;28;20484;-75
2023/08/01 04:51:25;;;;;;;1999.90;999.90;;;19.10;99.90;;;;;;5033375;28;20034;-75
2023/08/01 04:53:51;;;;;;;1999.90;999.90;;;19.00;99.90;;;;;;5015612;28;20115;-70
2023/08/01 04:56:17;;;;;;;1999.90;999.90;;;18.90;99.90;;;;;;5016028;28;20035;-71
2023/08/01 04:58:42;;;;;;;1999.90;999.90;;;18.80;99.90;;;;;;5036256;28;20392;-71
2023/08/01 05:01:08;;;;;;;1999.90;999.90;;;18.70;99.90;;;;;;5033385;28;20013;-71
2023/08/01 05:03:34;;;;;;;1999.90;999.90;;;18.60;99.90;;;;;;5032406;28;20457;-71
2023/08/01 05:05:59;;;;;;;1999.90;999.90;;;18.60;99.90;;;;;;5033289;28;20033;-71
2023/08/01 05:08:25;;;;;;;1999.90;999.90;;;18.60;99.90;;;;;;5033350;28;20476;-71
2023/08/01 05:10:50;;;;;;;1999.90;999.90;;;18.60;99.90;;;;;;5033043;28;20381;-71
2023/08/01 05:13:16;;;;;;;1999.90;999.90;;;18.60;99.90;;;;;;5033063;28;20040;-71
2023/08/01 05:15:47;;;;;;;1999.90;999.90;;;18.60;99.90;;;;;;5033136;28;20067;-71
2023/08/01 05:18:13;;;;;;;1999.90;999.90;;;18.50;99.90;;;;;;5033268;28;20032;-71
2023/08/01 05:20:39;;;;;;;1999.90;999.90;;;18.50;99.90;;;;;;5032968;28;20108;-71
2023/08/01 05:23:04;;;;;;;1999.90;999.90;;;18.50;99.90;;;;;;5032911;28;20064;-71
2023/08/01 05:25:30;;;;;;;1999.90;999.90;;;18.50;99.90;;;;;;5032948;28;20547;-71
2023/08/01 05:27:56;;;;;;;1999.90;999.90;;;18.40;99.90;;;;;;5031799;28;20037;-75
2023/08/01 05:30:21;;;;;;;1999.90;999.90;;;18.40;99.90;;;;;;5038024;28;20028;-71
2023/08/01 05:32:47;;;;;;;1999.90;999.90;;;18.30;99.90;;;;;;5046194;28;20025;-71
2023/08/01 05:35:13;;;;;;;1999.90;999.90;;;18.30;99.90;;;;;;5014550;28;20515;-71
2023/08/01 05:37:38;;;;;;;1999.90;999.90;;;18.30;99.90;;;;;;5032516;28;20021;-71
2023/08/01 05:40:05;;;;;;;1999.90;999.90;;;18.30;99.90;;;;;;5032704;28;20034;-71
2023/08/01 05:42:30;;;;;;;1999.90;999.90;;;18.40;99.90;;;;;;5032965;28;20022;-71
2023/08/01 05:44:56;;;;;;;1999.90;999.90;;;18.30;99.90;;;;;;5031061;28;20514;-71
2023/08/01 05:47:24;;;;;;;1999.90;999.90;;;18.40;99.90;;;;;;5030888;28;20025;-72
2023/08/01 05:49:50;;;;;;;1999.90;999.90;;;18.20;99.90;;;;;;5032197;28;20040;-71
2023/08/01 05:52:16;;;;;;;1999.90;999.90;;;18.20;99.90;;;;;;5030314;28;20041;-71
2023/08/01 05:54:41;;;;;;;1999.90;999.90;;;18.20;99.90;;;;;;5034895;28;20049;-75
2023/08/01 05:57:07;;;;;;;1999.90;999.90;;;18.20;99.90;;;;;;5052558;28;20454;-72
2023/08/01 05:59:33;;;;;;;1999.90;999.90;;;18.30;99.90;;;;;;5036437;28;20100;-71
2023/08/01 06:01:59;;;;;;;1999.90;999.90;;;18.40;99.90;;;;;;5015000;28;20561;-72
2023/08/01 06:04:25;;;;;;;1999.90;999.90;;;18.40;99.90;;;;;;5030814;28;20038;-71
2023/08/01 06:06:50;;;;;;;1999.90;999.90;;;18.50;99.90;;;;;;5030578;28;20033;-74
2023/08/01 06:09:16;;;;;;;1999.90;999.90;;;18.50;99.90;;;;;;5031977;28;20060;-74
2023/08/01 06:11:42;;;;;;;1999.90;999.90;;;18.50;99.90;;;;;;5015612;28;20033;-71
2023/08/01 06:14:08;;;;;;;1999.90;999.90;;;18.50;99.90;;;;;;5031851;28;20496;-71
2023/08/01 06:16:34;;;;;;;1999.90;999.90;;;18.40;99.90;;;;;;5034503;28;20163;-74
2023/08/01 06:18:59;;;;;;;1999.90;999.90;;;18.40;99.90;;;;;;5014301;28;20116;-72
2023/08/01 06:21:25;;;;;;;1999.90;999.90;;;18.40;99.90;;;;;;5010905;28;20025;-74
2023/08/01 06:23:51;;;;;;;1999.90;999.90;;;18.50;99.90;;;;;;5028861;28;20044;-74
2023/08/01 06:26:16;;;;;;;1999.90;999.90;;;18.60;99.90;;;;;;5031570;28;20112;-71
2023/08/01 06:28:42;;;;;;;1999.90;999.90;;;18.80;99.90;;;;;;5032021;28;20216;-71
2023/08/01 06:31:08;;;;;;;1999.90;999.90;;;18.90;99.90;;;;;;5030910;28;20055;-71
2023/08/01 06:33:33;;;;;;;1999.90;999.90;;;18.90;99.90;;;;;;5007525;28;20049;-72
2023/08/01 06:35:59;;;;;;;1999.90;999.90;;;18.90;99.90;;;;;;5022567;28;20026;-74
2023/08/01 06:38:25;;;;;;;1999.90;999.90;;;18.80;99.90;;;;;;5031576;28;20029;-71
2023/08/01 06:40:50;;;;;;;1999.90;999.90;;;18.80;99.90;;;;;;5015551;28;20030;-71
2023/08/01 06:43:16;;;;;;;1999.90;999.90;;;18.90;99.90;;;;;;5020418;28;20519;-72
2023/08/01 06:45:41;;;;;;;1999.90;999.90;;;18.90;99.90;;;;;;5031934;28;20022;-74
2023/08/01 06:48:08;;;;;;;1999.90;999.90;;;19.00;99.90;;;;;;5013255;28;20116;-74
2023/08/01 06:50:33;;;;;;;1999.90;999.90;;;19.10;99.90;;;;;;5013921;28;20521;-71
2023/08/01 06:53:00;;;;;;;1999.90;999.90;;;19.30;99.90;;;;;;5031274;28;20052;-71
2023/08/01 06:55:26;;;;;;;1999.90;999.90;;;19.50;99.90;;;;;;5009873;28;20412;-71
2023/08/01 06:57:52;;;;;;;1999.90;999.90;;;19.70;99.90;;;;;;5034379;28;20039;-72
2023/08/01 07:00:17;;;;;;;1999.90;999.90;;;19.80;99.90;;;;;;5042980;28;20017;-74
2023/08/01 07:02:43;;;;;;;1999.90;999.90;;;20.00;99.90;;;;;;5037724;28;20464;-74
2023/08/01 07:05:09;;;;;;;1999.90;999.90;;;20.20;99.90;;;;;;5022528;28;20026;-74
2023/08/01 07:07:34;;;;;;;1999.90;999.90;;;20.20;99.90;;;;;;5031712;28;20040;-72
2023/08/01 07:10:00;;;;;;;1999.90;999.90;;;20.10;99.90;;;;;;5033778;28;20084;-74
2023/08/01 07:12:25;;;;;;;1999.90;999.90;;;20.20;99.90;;;;;;5013276;28;20124;-72
2023/08/01 07:14:51;;;;;;;1999.90;999.90;;;20.20;99.90;;;;;;5033931;28;20427;-74
2023/08/01 07:17:17;;;;;;;1999.90;999.90;;;20.30;99.90;;;;;;5016423;28;20030;-71
2023/08/01 07:19:43;;;;;;;1999.90;999.90;;;20.20;99.90;;;;;;5016075;28;20159;-72
2023/08/01 07:22:09;;;;;;;1999.90;999.90;;;20.00;99.90;;;;;;5033595;28;20025;-71
2023/08/01 07:24:34;;;;;;;1999.90;999.90;;;19.90;99.90;;;;;;5016489;28;20049;-74
2023/08/01 07:27:00;;;;;;;1999.90;999.90;;;19.80;99.90;;;;;;5033160;28;20029;-72
2023/08/01 07:29:25;;;;;;;1999.90;999.90;;;19.80;99.90;;;;;;5033485;28;20037;-71
2023/08/01 07:31:51;;;;;;;1999.90;999.90;;;19.80;99.90;;;;;;5031467;28;20030;-72
2023/08/01 07:34:17;;;;;;;1999.90;999.90;;;19.80;99.90;;;;;;5031732;28;20033;-72
2023/08/01 07:36:42;;;;;;;1999.90;999.90;;;20.00;99.90;;;;;;5033132;28;20068;-72
2023/08/01 07:39:08;;;;;;;1999.90;999.90;;;20.10;99.90;;;;;;5014442;28;20029;-72
2023/08/01 07:41:34;;;;;;;1999.90;999.90;;;20.20;99.90;;;;;;5033518;28;20106;-72
2023/08/01 07:44:03;;;;;;;1999.90;999.90;;;20.40;99.90;;;;;;5029223;28;20046;-71
2023/08/01 07:46:28;;;;;;;1999.90;999.90;;;20.50;99.90;;;;;;5029372;28;20022;-72
2023/08/01 07:48:54;;;;;;;1999.90;999.90;;;20.60;99.90;;;;;;5034101;28;20079;-72
2023/08/01 07:51:20;;;;;;;1999.90;999.90;;;20.90;99.90;;;;;;5033325;28;20057;-72
2023/08/01 07:53:45;;;;;;;1999.90;999.90;;;21.70;99.90;;;;;;5032725;28;20065;-72
2023/08/01 07:56:11;;;;;;;1999.90;999.90;;;23.70;99.90;;;;;;5013593;28;20507;-72
2023/08/01 07:58:36;;;;;;;1999.90;999.90;;;23.20;99.90;;;;;;5033355;28;20028;-72
2023/08/01 08:01:04;;;;;;;1999.90;999.90;;;23.90;99.90;;;;;;5032976;28;20053;-72
2023/08/01 08:03:30;;;;;;;1999.90;999.90;;;24.40;99.90;;;;;;5032780;28;20060;-72
2023/08/01 08:05:55;;;;;;;1999.90;999.90;;;23.80;99.90;;;;;;5025450;28;20037;-72
2023/08/01 08:08:21;;;;;;;1999.90;999.90;;;25.60;99.90;;;;;;5027166;28;20037;-72
2023/08/01 08:10:47;;;;;;;1999.90;999.90;;;26.20;99.90;;;;;;5026339;28;20033;-72
2023/08/01 08:13:12;;;;;;;1999.90;999.90;;;27.00;99.90;;;;;;5026163;28;20053;-72
2023/08/01 08:15:38;;;;;;;1999.90;999.90;;;28.50;99.90;;;;;;5032318;28;20116;-73
2023/08/01 08:18:04;;;;;;;1999.90;999.90;;;28.10;99.90;;;;;;5029096;28;20033;-75
2023/08/01 08:20:31;;;;;;;1999.90;999.90;;;27.30;99.90;;;;;;5011474;28;20411;-72
2023/08/01 08:22:57;;;;;;;1999.90;999.90;;;25.70;99.90;;;;;;5030066;28;20462;-72
2023/08/01 08:25:22;;;;;;;1999.90;999.90;;;26.20;99.90;;;;;;5026015;28;20105;-72
2023/08/01 08:27:51;;;;;;;1999.90;999.90;;;25.70;99.90;;;;;;5030406;28;20037;-72
2023/08/01 08:30:17;;;;;;;1999.90;999.90;;;27.20;99.90;;;;;;5031587;28;20033;-75
2023/08/01 08:32:42;;;;;;;1999.90;999.90;;;28.50;99.90;;;;;;5012429;28;20029;-75
2023/08/01 08:35:08;;;;;;;1999.90;999.90;;;28.60;99.90;;;;;;5032924;28;20040;-72
2023/08/01 08:37:34;;;;;;;1999.90;999.90;;;27.90;99.90;;;;;;5030359;28;20060;-72
2023/08/01 08:39:59;;;;;;;1999.90;999.90;;;26.10;99.90;;;;;;5027810;28;20037;-72
2023/08/01 08:42:25;;;;;;;1999.90;999.90;;;25.20;99.90;;;;;;5011128;28;20021;-72
2023/08/01 08:44:55;;;;;;;1999.90;999.90;;;27.40;99.90;;;;;;5029579;28;20034;-72
2023/08/01 08:47:27;;;;;;;1999.90;999.90;;;27.50;99.90;;;;;;5012773;28;20025;-72
2023/08/01 08:49:56;;;;;;;1999.90;999.90;;;26.40;99.90;;;;;;5025798;28;20041;-72
2023/08/01 08:52:22;;;;;;;1999.90;999.90;;;25.30;99.90;;;;;;5027608;28;20029;-72
2023/08/01 08:54:48;;;;;;;1999.90;999.90;;;24.50;99.90;;;;;;5025325;28;20059;-72
2023/08/01 08:57:14;;;;;;;1999.90;999.90;;;25.10;99.90;;;;;;5030590;28;20037;-75
2023/08/01 08:59:41;;;;;;;1999.90;999.90;;;26.20;99.90;;;;;;5031017;28;20028;-72
2023/08/01 09:02:06;;;;;;;1999.90;999.90;;;26.50;99.90;;;;;;5028849;28;20029;-72
2023/08/01 09:04:32;;;;;;;1999.90;999.90;;;27.40;99.90;;;;;;5031963;28;20036;-72
2023/08/01 09:07:03;;;;;;;1999.90;999.90;;;25.80;99.90;;;;;;5027690;28;20045;-71
2023/08/01 09:09:28;;;;;;;1999.90;999.90;;;26.70;99.90;;;;;;5030491;28;20033;-76
2023/08/01 09:11:57;;;;;;;1999.90;999.90;;;26.50;99.90;;;;;;5017818;28;20045;-72
2023/08/01 09:14:23;;;;;;;1999.90;999.90;;;27.80;99.90;;;;;;5030849;28;20044;-73
2023/08/01 09:16:49;;;;;;;1999.90;999.90;;;28.50;99.90;;;;;;5031182;28;20037;-73
2023/08/01 09:19:21;;;;;;;1999.90;999.90;;;29.20;99.90;;;;;;5030566;28;20044;-72
2023/08/01 09:21:47;;;;;;;1999.90;999.90;;;29.20;99.90;;;;;;5013318;28;20124;-73
2023/08/01 09:24:17;;;;;;;1999.90;999.90;;;29.20;99.90;;;;;;5031626;28;20033;-74
2023/08/01 09:26:43;;;;;;;1999.90;999.90;;;29.90;99.90;;;;;;5031273;28;20072;-73
2023/08/01 09:29:09;;;;;;;1999.90;999.90;;;29.00;99.90;;;;;;5012492;28;20029;-72
2023/08/01 09:31:40;;;;;;;1999.90;999.90;;;27.60;99.90;;;;;;5021585;28;20087;-72
2023/08/01 09:34:18;;;;;;;1999.90;999.90;;;26.50;99.90;;;;;;5029641;28;20511;-72
2023/08/01 09:36:44;;;;;;;1999.90;999.90;;;24.40;99.90;;;;;;5013897;28;20512;-76
2023/08/01 09:39:20;;;;;;;1999.90;999.90;;;23.80;99.90;;;;;;5027732;28;20061;-72
2023/08/01 09:41:56;;;;;;;1999.90;999.90;;;23.70;99.90;;;;;;5028479;28;20029;-72
2023/08/01 09:44:21;;;;;;;1999.90;999.90;;;26.00;99.90;;;;;;5040195;28;20116;-73
2023/08/01 09:46:58;;;;;;;1999.90;999.90;;;27.90;99.90;;;;;;5039405;28;20109;-72
2023/08/01 09:49:23;;;;;;;1999.90;999.90;;;28.70;99.90;;;;;;5024416;28;20044;-77
2023/08/01 09:51:50;;;;;;;1999.90;999.90;;;28.30;99.90;;;;;;5007565;28;20030;-73
2023/08/01 09:54:17;;;;;;;1999.90;999.90;;;29.00;99.90;;;;;;5010894;28;20036;-72
2023/08/01 09:56:48;;;;;;;1999.90;999.90;;;28.20;99.90;;;;;;5027107;28;20036;-73
2023/08/01 09:59:22;;;;;;;1999.90;999.90;;;29.10;99.90;;;;;;5030434;28;20030;-73
2023/08/01 10:01:52;;;;;;;1999.90;999.90;;;29.20;99.90;;;;;;5029700;28;20018;-77
2023/08/01 10:04:26;;;;;;;1999.90;999.90;;;26.10;99.90;;;;;;5030024;28;20072;-72
2023/08/01 10:07:20;;;;;;;1999.90;999.90;;;24.90;99.90;;;;;;5030044;28;20095;-71
2023/08/01 10:09:47;;;;;;;1999.90;999.90;;;24.20;99.90;;;;;;5026732;28;20061;-72
2023/08/01 10:12:14;;;;;;;1999.90;999.90;;;23.60;99.90;;;;;;5031069;28;20037;-71
2023/08/01 10:14:41;;;;;;;1999.90;999.90;;;23.30;99.90;;;;;;5030701;28;20112;-76
2023/08/01 10:17:07;;;;;;;1999.90;999.90;;;22.70;99.90;;;;;;5022411;28;20089;-78
2023/08/01 10:19:33;;;;;;;1999.90;999.90;;;23.70;99.90;;;;;;5030435;28;20036;-71
2023/08/01 10:21:59;;;;;;;1999.90;999.90;;;23.30;99.90;;;;;;5011413;28;20108;-72
2023/08/01 10:24:27;;;;;;;1999.90;999.90;;;22.90;99.90;;;;;;5029669;28;20084;-74
2023/08/01 10:26:53;;;;;;;1999.90;999.90;;;22.40;99.90;;;;;;5027482;28;20608;-76
2023/08/01 10:29:18;;;;;;;1999.90;999.90;;;22.20;99.90;;;;;;5024814;28;20049;-72
2023/08/01 10:31:56;;;;;;;1999.90;999.90;;;22.10;99.90;;;;;;5032885;28;20029;-71
2023/08/01 10:34:21;;;;;;;1999.90;999.90;;;22.30;99.90;;;;;;5027420;28;20033;-72
2023/08/01 10:36:58;;;;;;;1999.90;999.90;;;22.10;99.90;;;;;;5033466;28;20037;-71
2023/08/01 10:39:25;;;;;;;1999.90;999.90;;;22.20;99.90;;;;;;5034804;28;20400;-77
2023/08/01 10:42:02;;;;;;;1999.90;999.90;;;22.10;99.90;;;;;;5033090;28;20025;-72
2023/08/01 10:44:30;;;;;;;1999.90;999.90;;;21.90;99.90;;;;;;5007640;28;20046;-72
2023/08/01 10:47:04;;;;;;;1999.90;999.90;;;21.70;99.90;;;;;;5033629;28;20053;-72
2023/08/01 10:49:36;;;;;;;1999.90;999.90;;;21.80;99.90;;;;;;5033406;28;20049;-72
2023/08/01 10:52:03;;;;;;;1999.90;999.90;;;21.70;99.90;;;;;;5028148;28;21379;-72
2023/08/01 10:54:29;;;;;;;1999.90;999.90;;;21.80;99.90;;;;;;5023560;28;20061;-76
2023/08/01 10:57:01;;;;;;;1999.90;999.90;;;21.70;99.90;;;;;;5027093;28;20507;-77
2023/08/01 10:59:27;;;;;;;1999.90;999.90;;;21.60;99.90;;;;;;5012452;28;20045;-71
2023/08/01 11:01:57;;;;;;;1999.90;999.90;;;21.70;99.90;;;;;;5031156;28;20525;-71
2023/08/01 11:04:23;;;;;;;1999.90;999.90;;;22.00;99.90;;;;;;5031813;28;20133;-72
2023/08/01 11:06:51;;;;;;;1999.90;999.90;;;21.80;99.90;;;;;;5039325;28;20346;-71
2023/08/01 11:09:24;;;;;;;1999.90;999.90;;;22.70;99.90;;;;;;5032129;28;20043;-71
2023/08/01 11:11:50;;;;;;;;;;;23.00;99.90;;;;;;5035770;28;20032;-72
2023/08/01 11:14:19;;;;;;;1999.90;999.90;;;23.00;99.90;;;;;;5031550;28;19916;-71
2023/08/01 11:16:45;;;;;;;1999.90;999.90;;;24.10;99.90;;;;;;5031734;28;20151;-71
2023/08/01 11:19:27;;;;;;;1999.90;999.90;;;24.20;99.90;;;;;;5030583;28;20447;-71
2023/08/01 11:21:57;;;;;;;1999.90;999.90;;;23.90;99.90;;;;;;5030695;28;20766;-72
2023/08/01 11:24:24;;;;;;;1999.90;999.90;;;23.20;99.90;;;;;;5013583;28;20033;-72
2023/08/01 11:26:51;;;;;;;1999.90;999.90;;;22.90;99.90;;;;;;5035184;28;20036;-71
2023/08/01 11:29:18;;;;;;;1999.90;999.90;;;22.80;99.90;;;;;;5030369;28;20039;-72
2023/08/01 11:31:58;;;;;;;1999.90;999.90;;;22.80;99.90;;;;;;5013541;28;20029;-77
2023/08/01 11:34:25;;;;;;;1999.90;999.90;;;22.40;99.90;;;;;;5033332;28;20029;-72
2023/08/01 11:36:51;;;;;;;1999.90;999.90;;;22.70;99.90;;;;;;5034374;28;20033;-73
2023/08/01 11:39:17;;;;;;;1999.90;999.90;;;22.40;99.90;;;;;;5014786;28;20088;-72
2023/08/01 11:41:45;;;;;;;1999.90;999.90;;;22.30;99.90;;;;;;5023725;28;20072;-72
2023/08/01 11:44:11;;;;;;;1999.90;999.90;;;22.10;99.90;;;;;;5026879;28;20516;-72
2023/08/01 11:46:38;;;;;;;1999.90;999.90;;;22.10;99.90;;;;;;5028903;28;20032;-79
2023/08/01 11:49:07;;;;;;;1999.90;999.90;;;22.10;99.90;;;;;;5028884;28;20033;-72
2023/08/01 11:51:41;;;;;;;1999.90;999.90;;;21.70;99.90;;;;;;5028614;28;20057;-72
2023/08/01 11:54:07;;;;;;;1999.90;999.90;;;21.50;99.90;;;;;;5010841;28;20408;-73
2023/08/01 11:56:33;;;;;;;1999.90;999.90;;;21.60;99.90;;;;;;5032949;28;20026;-72